createdAt,value
2017-03-21T00:00:02.749Z,9.24
2017-03-21T00:01:11.638Z,9.08
2017-03-21T00:02:20.524Z,9.14
2017-03-21T00:03:30.389Z,9.21
2017-03-21T00:04:40.257Z,9.24
2017-03-21T00:05:49.949Z,9.15
2017-03-21T00:06:59.486Z,9.26
2017-03-21T00:08:09.356Z,9.18
2017-03-21T00:09:18.943Z,9.2
2017-03-21T00:10:28.485Z,9.11
2017-03-21T00:11:37.910Z,9.08
2017-03-21T00:12:47.130Z,9.21
2017-03-21T00:13:56.997Z,9.21
2017-03-21T00:15:06.863Z,9.13
2017-03-21T00:16:16.073Z,9.08
2017-03-21T00:17:25.215Z,9.08
2017-03-21T00:18:34.755Z,9.04
2017-03-21T00:19:44.623Z,9.1
2017-03-21T00:20:53.835Z,9.01
2017-03-21T00:22:03.397Z,9.08
2017-03-21T00:23:13.364Z,9.11
2017-03-21T00:24:23.233Z,8.94
2017-03-21T00:25:33.101Z,9.02
2017-03-21T00:26:42.318Z,8.95
2017-03-21T00:27:51.207Z,9.21
2017-03-21T00:29:00.621Z,9.01
2017-03-21T00:30:09.511Z,8.95
2017-03-21T00:31:19.376Z,8.99
2017-03-21T00:32:28.916Z,8.91
2017-03-21T00:33:38.456Z,8.99
2017-03-21T00:34:48.148Z,8.99
2017-03-21T00:35:57.365Z,8.94
2017-03-21T00:37:06.583Z,8.95
2017-03-21T00:38:16.450Z,8.98
2017-03-21T00:39:26.326Z,8.95
2017-03-21T00:40:35.693Z,8.91
2017-03-21T00:41:44.916Z,8.89
2017-03-21T00:42:54.134Z,8.86
2017-03-21T00:44:04.325Z,8.95
2017-03-21T00:45:13.545Z,8.87
2017-03-21T00:46:22.860Z,8.92
2017-03-21T00:47:31.751Z,8.84
2017-03-21T00:48:41.304Z,8.92
2017-03-21T00:49:51.496Z,8.84
2017-03-21T00:51:00.717Z,8.86
2017-03-21T00:52:10.085Z,8.86
2017-03-21T00:53:19.309Z,8.76
2017-03-21T00:54:29.831Z,8.77
2017-03-21T00:55:39.704Z,8.79
2017-03-21T00:56:48.595Z,8.77
2017-03-21T00:57:57.915Z,8.86
2017-03-21T00:59:07.462Z,8.76
2017-03-21T01:00:17.324Z,8.77
2017-03-21T01:01:26.861Z,8.77
2017-03-21T01:02:35.750Z,8.73
2017-03-21T01:03:45.914Z,8.77
2017-03-21T01:04:55.456Z,8.74
2017-03-21T01:06:04.671Z,8.79
2017-03-21T01:07:13.889Z,8.73
2017-03-21T01:08:23.104Z,8.74
2017-03-21T01:09:32.774Z,8.65
2017-03-21T01:10:42.368Z,8.66
2017-03-21T01:11:51.296Z,8.73
2017-03-21T01:13:00.839Z,8.7
2017-03-21T01:14:10.385Z,8.68
2017-03-21T01:15:19.647Z,8.76
2017-03-21T01:16:28.533Z,8.65
2017-03-21T01:17:38.410Z,8.76
2017-03-21T01:18:47.965Z,8.74
2017-03-21T01:19:57.509Z,8.63
2017-03-21T01:21:07.206Z,8.65
2017-03-21T01:22:16.099Z,8.62
2017-03-21T01:23:25.362Z,8.66
2017-03-21T01:24:34.948Z,8.63
2017-03-21T01:25:44.488Z,8.58
2017-03-21T01:26:54.504Z,8.62
2017-03-21T01:28:03.737Z,8.56
2017-03-21T01:29:13.292Z,8.58
2017-03-21T01:30:22.834Z,8.55
2017-03-21T01:31:32.053Z,8.55
2017-03-21T01:32:41.683Z,8.5
2017-03-21T01:33:50.903Z,8.53
2017-03-21T01:34:59.788Z,8.56
2017-03-21T01:36:08.676Z,8.48
2017-03-21T01:37:17.567Z,8.55
2017-03-21T01:38:26.605Z,8.58
2017-03-21T01:39:36.144Z,8.53
2017-03-21T01:40:45.357Z,8.47
2017-03-21T01:41:54.900Z,8.43
2017-03-21T01:43:04.132Z,8.47
2017-03-21T01:44:13.509Z,8.58
2017-03-21T01:45:23.701Z,8.45
2017-03-21T01:46:32.913Z,8.47
2017-03-21T01:47:41.803Z,8.52
2017-03-21T01:48:51.353Z,8.5
2017-03-21T01:50:00.946Z,8.43
2017-03-21T01:51:10.160Z,8.44
2017-03-21T01:52:19.381Z,8.47
2017-03-21T01:53:29.577Z,8.48
2017-03-21T01:54:39.445Z,8.47
2017-03-21T01:55:48.385Z,8.5
2017-03-21T01:56:57.599Z,8.44
2017-03-21T01:58:06.819Z,8.44
2017-03-21T01:59:16.692Z,8.41
2017-03-21T02:00:26.554Z,8.41
2017-03-21T02:01:35.915Z,8.5
2017-03-21T02:02:45.138Z,8.61
2017-03-21T02:03:54.691Z,8.62
2017-03-21T02:05:03.907Z,8.44
2017-03-21T02:06:13.120Z,8.53
2017-03-21T02:07:22.527Z,8.45
2017-03-21T02:08:32.400Z,8.43
2017-03-21T02:09:41.942Z,8.41
2017-03-21T02:10:51.808Z,8.45
2017-03-21T02:12:00.696Z,8.44
2017-03-21T02:13:10.391Z,8.41
2017-03-21T02:14:19.932Z,8.45
2017-03-21T02:15:30.128Z,8.44
2017-03-21T02:16:39.347Z,8.43
2017-03-21T02:17:48.561Z,8.36
2017-03-21T02:18:58.584Z,8.47
2017-03-21T02:20:08.160Z,8.45
2017-03-21T02:21:17.725Z,8.34
2017-03-21T02:22:26.940Z,8.44
2017-03-21T02:23:35.841Z,8.44
2017-03-21T02:24:45.537Z,8.34
2017-03-21T02:25:55.436Z,8.41
2017-03-21T02:27:05.642Z,8.48
2017-03-21T02:28:15.190Z,8.37
2017-03-21T02:29:24.735Z,8.3
2017-03-21T02:30:34.277Z,8.25
2017-03-21T02:31:43.170Z,8.25
2017-03-21T02:32:53.038Z,8.29
2017-03-21T02:34:02.254Z,8.33
2017-03-21T02:35:11.471Z,8.23
2017-03-21T02:36:20.837Z,8.19
2017-03-21T02:37:29.728Z,8.15
2017-03-21T02:38:38.941Z,8.12
2017-03-21T02:39:48.813Z,8.04
2017-03-21T02:40:58.361Z,8.07
2017-03-21T02:42:07.299Z,8.1
2017-03-21T02:43:16.844Z,8.07
2017-03-21T02:44:26.392Z,7.95
2017-03-21T02:45:35.930Z,8.04
2017-03-21T02:46:45.183Z,8.02
2017-03-21T02:47:54.895Z,7.83
2017-03-21T02:49:04.433Z,7.95
2017-03-21T02:50:13.981Z,7.79
2017-03-21T02:51:23.200Z,7.79
2017-03-21T02:52:32.740Z,7.82
2017-03-21T02:53:42.607Z,7.82
2017-03-21T02:54:52.475Z,7.85
2017-03-21T02:56:02.343Z,7.86
2017-03-21T02:57:11.230Z,7.8
2017-03-21T02:58:20.778Z,7.71
2017-03-21T02:59:30.949Z,7.71
2017-03-21T03:00:40.490Z,7.67
2017-03-21T03:01:49.382Z,7.67
2017-03-21T03:02:58.594Z,7.67
2017-03-21T03:04:07.808Z,7.68
2017-03-21T03:05:17.174Z,7.6
2017-03-21T03:06:26.386Z,7.64
2017-03-21T03:07:35.273Z,7.6
2017-03-21T03:08:44.821Z,7.55
2017-03-21T03:09:54.366Z,7.58
2017-03-21T03:11:03.836Z,7.5
2017-03-21T03:12:13.374Z,7.53
2017-03-21T03:13:23.247Z,7.49
2017-03-21T03:14:33.443Z,7.58
2017-03-21T03:15:42.981Z,7.5
2017-03-21T03:16:52.602Z,7.49
2017-03-21T03:18:02.469Z,7.53
2017-03-21T03:19:12.339Z,7.57
2017-03-21T03:20:22.207Z,7.58
2017-03-21T03:21:31.423Z,7.58
2017-03-21T03:22:40.890Z,7.57
2017-03-21T03:23:50.757Z,7.55
2017-03-21T03:25:00.301Z,7.55
2017-03-21T03:26:09.193Z,7.61
2017-03-21T03:27:18.733Z,7.55
2017-03-21T03:28:28.425Z,7.49
2017-03-21T03:29:38.297Z,7.58
2017-03-21T03:30:47.511Z,7.48
2017-03-21T03:31:56.399Z,7.45
2017-03-21T03:33:05.620Z,7.46
2017-03-21T03:34:15.139Z,7.49
2017-03-21T03:35:25.009Z,7.49
2017-03-21T03:36:34.217Z,7.53
2017-03-21T03:37:43.760Z,7.48
2017-03-21T03:38:53.624Z,7.45
2017-03-21T03:40:03.544Z,7.42
2017-03-21T03:41:12.756Z,7.43
2017-03-21T03:42:21.971Z,7.49
2017-03-21T03:43:31.188Z,7.57
2017-03-21T03:44:41.055Z,7.67
2017-03-21T03:45:50.247Z,7.5
2017-03-21T03:46:59.463Z,7.52
2017-03-21T03:48:08.682Z,7.5
2017-03-21T03:49:18.553Z,7.55
2017-03-21T03:50:28.417Z,7.52
2017-03-21T03:51:37.683Z,7.57
2017-03-21T03:52:46.580Z,7.58
2017-03-21T03:53:57.103Z,7.61
2017-03-21T03:55:06.650Z,7.6
2017-03-21T03:56:15.869Z,7.64
2017-03-21T03:57:25.884Z,7.6
2017-03-21T03:58:35.432Z,7.67
2017-03-21T03:59:45.620Z,7.63
2017-03-21T04:00:55.482Z,7.68
2017-03-21T04:02:04.692Z,7.67
2017-03-21T04:03:13.957Z,7.68
2017-03-21T04:04:23.830Z,7.71
2017-03-21T04:05:33.044Z,7.74
2017-03-21T04:06:42.956Z,7.77
2017-03-21T04:07:52.501Z,7.68
2017-03-21T04:09:02.529Z,7.69
2017-03-21T04:10:11.742Z,7.58
2017-03-21T04:11:21.607Z,7.61
2017-03-21T04:12:30.494Z,7.6
2017-03-21T04:13:40.040Z,7.55
2017-03-21T04:14:49.407Z,7.5
2017-03-21T04:15:59.276Z,7.53
2017-03-21T04:17:08.491Z,7.46
2017-03-21T04:18:18.036Z,7.4
2017-03-21T04:19:27.910Z,7.46
2017-03-21T04:20:38.027Z,7.42
2017-03-21T04:21:47.575Z,7.42
2017-03-21T04:22:57.444Z,7.28
2017-03-21T04:24:07.305Z,7.28
2017-03-21T04:25:16.843Z,7.28
2017-03-21T04:26:26.057Z,7.28
2017-03-21T04:27:34.947Z,7.3
2017-03-21T04:28:44.822Z,7.17
2017-03-21T04:29:54.366Z,7.23
2017-03-21T04:31:04.228Z,7.21
2017-03-21T04:32:13.538Z,7.17
2017-03-21T04:33:22.751Z,7.13
2017-03-21T04:34:31.964Z,7.09
2017-03-21T04:35:41.179Z,6.99
2017-03-21T04:36:50.746Z,6.99
2017-03-21T04:38:00.059Z,7.02
2017-03-21T04:39:09.612Z,7.02
2017-03-21T04:40:19.149Z,6.99
2017-03-21T04:41:28.036Z,7.05
2017-03-21T04:42:37.253Z,7.03
2017-03-21T04:43:47.600Z,6.95
2017-03-21T04:44:57.146Z,6.91
2017-03-21T04:46:07.013Z,6.94
2017-03-21T04:47:16.226Z,6.87
2017-03-21T04:48:25.777Z,6.77
2017-03-21T04:49:34.993Z,6.77
2017-03-21T04:50:43.881Z,6.91
2017-03-21T04:51:53.095Z,6.87
2017-03-21T04:53:02.645Z,6.84
2017-03-21T04:54:12.516Z,6.85
2017-03-21T04:55:21.883Z,6.85
2017-03-21T04:56:30.771Z,6.84
2017-03-21T04:57:39.985Z,6.84
2017-03-21T04:58:49.862Z,6.84
2017-03-21T04:59:59.410Z,6.69
2017-03-21T05:01:08.951Z,6.66
2017-03-21T05:02:17.850Z,6.67
2017-03-21T05:03:27.072Z,6.67
2017-03-21T05:04:35.969Z,6.71
2017-03-21T05:05:44.859Z,6.7
2017-03-21T05:06:54.126Z,6.67
2017-03-21T05:08:03.679Z,6.67
2017-03-21T05:09:13.230Z,6.61
2017-03-21T05:10:23.106Z,6.67
2017-03-21T05:11:31.998Z,6.62
2017-03-21T05:12:41.547Z,6.67
2017-03-21T05:13:51.420Z,6.61
2017-03-21T05:15:01.621Z,6.66
2017-03-21T05:16:11.164Z,6.54
2017-03-21T05:17:20.058Z,6.55
2017-03-21T05:18:29.339Z,6.52
2017-03-21T05:19:38.885Z,6.54
2017-03-21T05:20:48.113Z,6.48
2017-03-21T05:21:57.000Z,6.48
2017-03-21T05:23:06.220Z,6.54
2017-03-21T05:24:15.494Z,6.41
2017-03-21T05:25:25.035Z,6.51
2017-03-21T05:26:34.898Z,6.4
2017-03-21T05:27:44.122Z,6.37
2017-03-21T05:28:54.332Z,6.37
2017-03-21T05:30:03.924Z,6.36
2017-03-21T05:31:12.811Z,6.36
2017-03-21T05:32:21.701Z,6.36
2017-03-21T05:33:31.612Z,6.46
2017-03-21T05:34:40.837Z,6.44
2017-03-21T05:35:49.877Z,6.48
2017-03-21T05:36:59.095Z,6.41
2017-03-21T05:38:08.962Z,6.43
2017-03-21T05:39:18.185Z,6.38
2017-03-21T05:40:27.727Z,6.49
2017-03-21T05:41:36.619Z,6.51
2017-03-21T05:42:45.835Z,6.44
2017-03-21T05:43:55.706Z,6.44
2017-03-21T05:45:05.902Z,6.56
2017-03-21T05:46:15.120Z,6.51
2017-03-21T05:47:24.084Z,6.46
2017-03-21T05:48:33.667Z,6.44
2017-03-21T05:49:43.533Z,6.49
2017-03-21T05:50:52.752Z,6.46
2017-03-21T05:52:01.968Z,6.44
2017-03-21T05:53:12.090Z,6.49
2017-03-21T05:54:21.959Z,6.49
2017-03-21T05:55:32.167Z,6.44
2017-03-21T05:56:41.054Z,6.48
2017-03-21T05:57:50.594Z,6.56
2017-03-21T05:58:59.639Z,6.56
2017-03-21T06:00:09.185Z,6.54
2017-03-21T06:01:18.727Z,6.54
2017-03-21T06:02:27.944Z,6.49
2017-03-21T06:03:36.836Z,6.48
2017-03-21T06:04:47.018Z,6.52
2017-03-21T06:05:56.579Z,6.62
2017-03-21T06:07:05.467Z,6.62
2017-03-21T06:08:15.013Z,6.61
2017-03-21T06:09:24.888Z,6.66
2017-03-21T06:10:33.876Z,6.71
2017-03-21T06:11:42.761Z,6.66
2017-03-21T06:12:52.304Z,6.67
2017-03-21T06:14:02.187Z,6.76
2017-03-21T06:15:11.401Z,6.69
2017-03-21T06:16:20.767Z,6.71
2017-03-21T06:17:29.978Z,6.67
2017-03-21T06:18:38.872Z,6.71
2017-03-21T06:19:48.414Z,6.76
2017-03-21T06:20:57.629Z,6.79
2017-03-21T06:22:07.094Z,6.71
2017-03-21T06:23:16.645Z,6.71
2017-03-21T06:24:26.515Z,6.79
2017-03-21T06:25:35.731Z,6.87
2017-03-21T06:26:45.270Z,6.81
2017-03-21T06:27:54.635Z,6.8
2017-03-21T06:29:04.520Z,6.92
2017-03-21T06:30:14.064Z,6.88
2017-03-21T06:31:23.280Z,7.03
2017-03-21T06:32:32.823Z,7.1
2017-03-21T06:33:42.789Z,7.13
2017-03-21T06:34:52.663Z,7.06
2017-03-21T06:36:02.546Z,7.2
2017-03-21T06:37:12.084Z,7.2
2017-03-21T06:38:21.312Z,7.3
2017-03-21T06:39:31.195Z,7.31
2017-03-21T06:40:40.413Z,7.31
2017-03-21T06:41:49.635Z,7.3
2017-03-21T06:42:58.851Z,7.46
2017-03-21T06:44:08.399Z,7.4
2017-03-21T06:45:18.243Z,7.45
2017-03-21T06:46:27.461Z,7.5
2017-03-21T06:47:36.678Z,7.49
2017-03-21T06:48:47.201Z,7.4
2017-03-21T06:49:56.752Z,7.5
2017-03-21T06:51:06.023Z,7.48
2017-03-21T06:52:15.571Z,7.5
2017-03-21T06:53:25.115Z,7.5
2017-03-21T06:54:35.018Z,7.48
2017-03-21T06:55:44.559Z,7.53
2017-03-21T06:56:53.926Z,7.5
2017-03-21T06:58:03.468Z,7.58
2017-03-21T06:59:13.665Z,7.58
2017-03-21T07:00:22.882Z,7.64
2017-03-21T07:01:32.108Z,7.68
2017-03-21T07:02:42.139Z,7.68
2017-03-21T07:03:51.692Z,7.74
2017-03-21T07:05:01.887Z,7.77
2017-03-21T07:06:11.102Z,7.75
2017-03-21T07:07:20.317Z,7.82
2017-03-21T07:08:30.108Z,7.89
2017-03-21T07:09:39.978Z,7.87
2017-03-21T07:10:49.197Z,8.1
2017-03-21T07:11:58.092Z,8.07
2017-03-21T07:13:07.633Z,8.1
2017-03-21T07:14:17.753Z,8.16
2017-03-21T07:15:27.617Z,8.18
2017-03-21T07:16:36.505Z,8.22
2017-03-21T07:17:45.724Z,8.28
2017-03-21T07:18:55.608Z,8.33
2017-03-21T07:20:05.563Z,8.3
2017-03-21T07:21:14.805Z,8.29
2017-03-21T07:22:23.698Z,8.26
2017-03-21T07:23:33.255Z,8.28
2017-03-21T07:24:42.479Z,8.36
2017-03-21T07:25:51.942Z,8.34
2017-03-21T07:27:01.160Z,8.33
2017-03-21T07:28:10.381Z,8.29
2017-03-21T07:29:19.599Z,8.33
2017-03-21T07:30:28.830Z,8.36
2017-03-21T07:31:38.421Z,8.34
2017-03-21T07:32:47.967Z,8.34
2017-03-21T07:33:57.510Z,8.36
2017-03-21T07:35:07.383Z,8.33
2017-03-21T07:36:16.930Z,8.26
2017-03-21T07:37:26.300Z,8.43
2017-03-21T07:38:35.531Z,8.41
2017-03-21T07:39:44.755Z,8.41
2017-03-21T07:40:53.642Z,8.3
2017-03-21T07:42:02.864Z,8.4
2017-03-21T07:43:12.893Z,8.44
2017-03-21T07:44:22.453Z,8.45
2017-03-21T07:45:32.020Z,8.41
2017-03-21T07:46:41.250Z,8.45
2017-03-21T07:47:50.147Z,8.45
2017-03-21T07:48:59.679Z,8.48
2017-03-21T07:50:09.229Z,8.59
2017-03-21T07:51:19.421Z,8.58
2017-03-21T07:52:28.652Z,8.66
2017-03-21T07:53:37.869Z,8.73
2017-03-21T07:54:47.891Z,8.73
2017-03-21T07:55:57.111Z,8.77
2017-03-21T07:57:06.660Z,8.73
2017-03-21T07:58:16.220Z,8.76
2017-03-21T07:59:26.420Z,8.71
2017-03-21T08:00:35.887Z,8.71
2017-03-21T08:01:45.432Z,8.66
2017-03-21T08:02:54.651Z,8.58
2017-03-21T08:04:03.876Z,8.63
2017-03-21T08:05:13.741Z,8.7
2017-03-21T08:06:23.658Z,8.79
2017-03-21T08:07:33.201Z,8.74
2017-03-21T08:08:42.426Z,8.76
2017-03-21T08:09:52.301Z,8.86
2017-03-21T08:11:01.854Z,8.87
2017-03-21T08:12:10.798Z,8.84
2017-03-21T08:13:20.343Z,8.91
2017-03-21T08:14:29.901Z,8.94
2017-03-21T08:15:39.117Z,8.95
2017-03-21T08:16:48.336Z,8.94
2017-03-21T08:17:58.251Z,8.96
2017-03-21T08:19:07.140Z,8.98
2017-03-21T08:20:16.693Z,9.01
2017-03-21T08:21:26.566Z,9.17
2017-03-21T08:22:35.782Z,9.11
2017-03-21T08:23:45.053Z,9.21
2017-03-21T08:24:54.938Z,9.14
2017-03-21T08:26:04.156Z,9.24
2017-03-21T08:27:13.706Z,9.21
2017-03-21T08:28:22.927Z,9.23
2017-03-21T08:29:32.953Z,9.2
2017-03-21T08:30:42.175Z,9.23
2017-03-21T08:31:51.062Z,9.24
2017-03-21T08:33:00.608Z,9.23
2017-03-21T08:34:09.507Z,9.31
2017-03-21T08:35:18.728Z,9.31
2017-03-21T08:36:27.618Z,9.26
2017-03-21T08:37:36.505Z,9.23
2017-03-21T08:38:45.394Z,9.23
2017-03-21T08:39:54.288Z,9.36
2017-03-21T08:41:03.662Z,9.24
2017-03-21T08:42:12.602Z,9.29
2017-03-21T08:43:21.832Z,9.21
2017-03-21T08:44:31.379Z,9.33
2017-03-21T08:45:40.290Z,9.24
2017-03-21T08:46:49.653Z,9.23
2017-03-21T08:47:58.552Z,9.23
2017-03-21T08:49:07.777Z,9.31
2017-03-21T08:50:16.679Z,9.28
2017-03-21T08:51:25.570Z,9.33
2017-03-21T08:52:34.513Z,9.36
2017-03-21T08:53:43.733Z,9.43
2017-03-21T08:54:53.278Z,9.39
2017-03-21T08:56:02.496Z,9.47
2017-03-21T08:57:11.722Z,9.51
2017-03-21T08:58:20.869Z,9.51
2017-03-21T08:59:30.416Z,9.56
2017-03-21T09:00:39.638Z,9.53
2017-03-21T09:01:48.540Z,9.66
2017-03-21T09:02:57.438Z,9.75
2017-03-21T09:04:06.340Z,9.72
2017-03-21T09:05:15.236Z,9.75
2017-03-21T09:06:24.451Z,9.78
2017-03-21T09:07:33.346Z,9.81
2017-03-21T09:08:42.275Z,9.78
2017-03-21T09:09:51.610Z,9.81
2017-03-21T09:11:00.506Z,9.74
2017-03-21T09:12:09.405Z,9.71
2017-03-21T09:13:18.296Z,9.66
2017-03-21T09:14:27.517Z,9.56
2017-03-21T09:15:36.524Z,9.56
2017-03-21T09:16:45.745Z,9.68
2017-03-21T09:17:54.635Z,9.76
2017-03-21T09:19:03.528Z,9.79
2017-03-21T09:20:13.391Z,9.91
2017-03-21T09:21:22.431Z,10.08
2017-03-21T09:22:31.327Z,10.15
2017-03-21T09:23:40.547Z,10.29
2017-03-21T09:24:49.766Z,10.4
2017-03-21T09:25:58.660Z,10.34
2017-03-21T09:27:08.082Z,10.44
2017-03-21T09:28:16.973Z,10.48
2017-03-21T09:29:25.876Z,10.66
2017-03-21T09:30:35.418Z,10.52
2017-03-21T09:31:44.323Z,10.53
2017-03-21T09:32:53.808Z,10.47
2017-03-21T09:34:03.034Z,10.42
2017-03-21T09:35:11.926Z,10.4
2017-03-21T09:36:20.821Z,10.36
2017-03-21T09:37:29.711Z,10.45
2017-03-21T09:38:38.938Z,10.66
2017-03-21T09:39:48.162Z,10.64
2017-03-21T09:40:57.704Z,10.61
2017-03-21T09:42:07.245Z,10.68
2017-03-21T09:43:16.463Z,10.81
2017-03-21T09:44:25.757Z,10.88
2017-03-21T09:45:34.644Z,10.86
2017-03-21T09:46:43.533Z,10.88
2017-03-21T09:47:53.083Z,10.99
2017-03-21T09:49:02.305Z,11.06
2017-03-21T09:50:11.345Z,11.09
2017-03-21T09:51:20.241Z,11.09
2017-03-21T09:52:29.141Z,11
2017-03-21T09:53:38.356Z,10.92
2017-03-21T09:54:47.897Z,10.91
2017-03-21T09:55:57.165Z,10.94
2017-03-21T09:57:06.383Z,10.96
2017-03-21T09:58:15.274Z,11.06
2017-03-21T09:59:56.537Z,11.1
2017-03-21T10:01:05.579Z,11.11
2017-03-21T10:02:14.473Z,11.07
2017-03-21T10:03:23.370Z,11.14
2017-03-21T10:04:32.262Z,10.85
2017-03-21T10:05:41.157Z,10.85
2017-03-21T10:06:50.200Z,10.63
2017-03-21T10:07:59.106Z,10.4
2017-03-21T10:09:08.326Z,10.3
2017-03-21T10:10:17.544Z,10.18
2017-03-21T10:11:26.759Z,10.18
2017-03-21T10:12:35.803Z,10.11
2017-03-21T10:13:44.691Z,9.97
2017-03-21T10:14:53.578Z,9.93
2017-03-21T10:16:02.798Z,9.96
2017-03-21T10:17:11.696Z,10.04
2017-03-21T10:18:20.749Z,10.08
2017-03-21T10:19:29.655Z,10.09
2017-03-21T10:20:38.548Z,10.2
2017-03-21T10:21:47.437Z,10.29
2017-03-21T10:22:56.331Z,10.32
2017-03-21T10:24:05.800Z,10.34
2017-03-21T10:25:15.339Z,10.44
2017-03-21T10:26:24.554Z,10.45
2017-03-21T10:27:33.446Z,10.52
2017-03-21T10:28:42.331Z,10.6
2017-03-21T10:29:51.652Z,10.44
2017-03-21T10:31:00.541Z,10.51
2017-03-21T10:32:09.429Z,10.33
2017-03-21T10:33:18.642Z,10.42
2017-03-21T10:34:28.190Z,10.55
2017-03-21T10:35:37.236Z,10.44
2017-03-21T10:36:46.454Z,10.52
2017-03-21T10:37:55.343Z,10.63
2017-03-21T10:39:04.230Z,10.55
2017-03-21T10:40:13.450Z,10.76
2017-03-21T10:41:22.501Z,10.78
2017-03-21T10:42:31.389Z,10.86
2017-03-21T10:43:40.279Z,10.92
2017-03-21T10:44:49.184Z,10.94
2017-03-21T10:45:58.401Z,10.82
2017-03-21T10:47:07.345Z,10.82
2017-03-21T10:48:16.246Z,10.88
2017-03-21T10:49:25.132Z,10.96
2017-03-21T10:50:34.024Z,11.02
2017-03-21T10:51:42.926Z,11.06
2017-03-21T10:52:52.291Z,11.11
2017-03-21T10:54:01.506Z,11.03
2017-03-21T10:55:10.725Z,11.04
2017-03-21T10:56:19.618Z,11.04
2017-03-21T10:57:28.837Z,11.02
2017-03-21T10:58:38.110Z,10.99
2017-03-21T10:59:47.334Z,10.91
2017-03-21T11:00:56.553Z,10.86
2017-03-21T11:02:05.766Z,10.91
2017-03-21T11:03:14.661Z,10.74
2017-03-21T11:04:24.031Z,10.34
2017-03-21T11:05:33.577Z,9.9
2017-03-21T11:06:42.803Z,9.48
2017-03-21T11:07:52.048Z,9.26
2017-03-21T11:09:01.586Z,8.94
2017-03-21T11:10:10.952Z,8.58
2017-03-21T11:11:19.845Z,8.47
2017-03-21T11:12:28.768Z,8.12
2017-03-21T11:13:37.991Z,8
2017-03-21T11:14:47.214Z,7.98
2017-03-21T11:15:56.708Z,8
2017-03-21T11:17:05.927Z,7.85
2017-03-21T11:18:15.146Z,7.8
2017-03-21T11:19:24.690Z,7.85
2017-03-21T11:20:33.580Z,7.85
2017-03-21T11:21:42.573Z,7.87
2017-03-21T11:22:51.787Z,7.9
2017-03-21T11:24:01.336Z,7.87
2017-03-21T11:25:10.228Z,7.85
2017-03-21T11:26:19.448Z,7.83
2017-03-21T11:27:28.590Z,7.97
2017-03-21T11:28:37.479Z,7.86
2017-03-21T11:29:46.372Z,8.02
2017-03-21T11:30:55.264Z,8.15
2017-03-21T11:32:04.481Z,8.1
2017-03-21T11:33:13.849Z,7.92
2017-03-21T11:34:23.394Z,8.05
2017-03-21T11:35:32.608Z,8.04
2017-03-21T11:36:41.831Z,8.08
2017-03-21T11:37:50.726Z,8.08
2017-03-21T11:38:59.719Z,7.97
2017-03-21T11:40:08.615Z,7.97
2017-03-21T11:41:17.505Z,8.12
2017-03-21T11:42:26.719Z,8.12
2017-03-21T11:43:35.608Z,8.16
2017-03-21T11:44:44.747Z,8.34
2017-03-21T11:45:53.651Z,8.33
2017-03-21T11:47:03.192Z,8.33
2017-03-21T11:48:12.079Z,8.36
2017-03-21T11:49:20.969Z,8.4
2017-03-21T11:50:30.006Z,8.44
2017-03-21T11:51:39.221Z,8.47
2017-03-21T11:52:49.090Z,8.55
2017-03-21T11:53:58.344Z,8.59
2017-03-21T11:55:07.564Z,8.73
2017-03-21T11:56:16.856Z,8.76
2017-03-21T11:57:25.743Z,8.87
2017-03-21T11:58:34.636Z,8.91
2017-03-21T11:59:43.853Z,9.08
2017-03-21T12:00:52.750Z,9.2
2017-03-21T12:02:01.793Z,9.2
2017-03-21T12:03:10.686Z,9.21
2017-03-21T12:04:19.577Z,9.4
2017-03-21T12:05:29.121Z,9.57
2017-03-21T12:06:38.339Z,9.64
2017-03-21T12:07:47.862Z,9.68
2017-03-21T12:08:57.086Z,9.64
2017-03-21T12:10:06.636Z,9.56
2017-03-21T12:11:15.854Z,9.47
2017-03-21T12:12:25.403Z,9.51
2017-03-21T12:13:34.400Z,9.46
2017-03-21T12:14:43.292Z,9.38
2017-03-21T12:15:52.506Z,9.56
2017-03-21T12:17:01.753Z,9.68
2017-03-21T12:18:10.644Z,9.6
2017-03-21T12:19:20.013Z,9.9
2017-03-21T12:20:29.571Z,10.02
2017-03-21T12:21:38.466Z,10.07
2017-03-21T12:22:47.365Z,10.14
2017-03-21T12:23:56.580Z,10.14
2017-03-21T12:25:05.627Z,10.4
2017-03-21T12:26:14.529Z,10.26
2017-03-21T12:27:23.757Z,10.26
2017-03-21T12:28:33.635Z,10.15
2017-03-21T12:29:43.187Z,10.11
2017-03-21T12:30:52.135Z,9.99
2017-03-21T12:32:01.037Z,9.81
2017-03-21T12:33:10.265Z,9.75
2017-03-21T12:34:19.492Z,9.87
2017-03-21T12:35:28.390Z,9.83
2017-03-21T12:36:37.532Z,9.94
2017-03-21T12:37:46.756Z,10.14
2017-03-21T12:38:56.634Z,10.33
2017-03-21T12:40:05.524Z,10.45
2017-03-21T12:41:14.746Z,10.6
2017-03-21T12:42:24.341Z,10.61
2017-03-21T12:43:33.564Z,10.64
2017-03-21T12:44:42.461Z,10.81
2017-03-21T12:45:51.358Z,10.88
2017-03-21T12:47:00.591Z,10.91
2017-03-21T12:48:09.791Z,10.86
2017-03-21T12:49:19.346Z,10.84
2017-03-21T12:50:29.224Z,10.86
2017-03-21T12:51:38.119Z,10.82
2017-03-21T12:52:47.335Z,10.79
2017-03-21T12:53:56.383Z,10.82
2017-03-21T12:55:05.282Z,10.97
2017-03-21T12:56:14.180Z,11.03
2017-03-21T12:57:23.077Z,10.92
2017-03-21T12:58:31.971Z,11.02
2017-03-21T12:59:41.013Z,11
2017-03-21T13:00:49.905Z,11.17
2017-03-21T13:01:58.804Z,11.25
2017-03-21T13:03:08.047Z,11.24
2017-03-21T13:04:17.277Z,11.36
2017-03-21T13:05:26.581Z,11.42
2017-03-21T13:06:35.808Z,11.37
2017-03-21T13:07:45.365Z,11.42
2017-03-21T13:08:54.600Z,11.72
2017-03-21T13:10:03.830Z,11.85
2017-03-21T13:11:12.778Z,11.73
2017-03-21T13:12:22.000Z,11.94
2017-03-21T13:13:31.224Z,11.95
2017-03-21T13:14:40.454Z,12.02
2017-03-21T13:15:49.678Z,11.88
2017-03-21T13:16:58.684Z,12.04
2017-03-21T13:18:07.918Z,11.95
2017-03-21T13:19:16.849Z,11.72
2017-03-21T13:20:26.689Z,11.51
2017-03-21T13:21:35.591Z,11.55
2017-03-21T13:22:44.613Z,11.36
2017-03-21T13:23:53.514Z,11.36
2017-03-21T13:25:02.739Z,11.21
2017-03-21T13:26:11.674Z,11.11
2017-03-21T13:27:20.915Z,11.14
2017-03-21T13:28:29.964Z,10.99
2017-03-21T13:29:39.190Z,11.02
2017-03-21T13:30:48.434Z,10.89
2017-03-21T13:31:57.363Z,10.86
2017-03-21T13:33:06.266Z,10.84
2017-03-21T13:34:15.539Z,10.81
2017-03-21T13:35:24.435Z,10.78
2017-03-21T13:36:33.653Z,10.63
2017-03-21T13:37:42.565Z,10.64
2017-03-21T13:38:51.797Z,10.85
2017-03-21T13:40:01.790Z,10.81
2017-03-21T13:41:10.697Z,10.86
2017-03-21T13:42:19.915Z,10.82
2017-03-21T13:43:28.832Z,10.86
2017-03-21T13:44:38.081Z,10.91
2017-03-21T13:45:47.237Z,10.85
2017-03-21T13:46:56.172Z,10.84
2017-03-21T13:48:06.191Z,10.74
2017-03-21T13:49:15.126Z,10.76
2017-03-21T13:50:24.020Z,10.85
2017-03-21T13:51:33.279Z,10.71
2017-03-21T13:52:42.850Z,10.59
2017-03-21T13:53:52.405Z,10.52
2017-03-21T13:55:01.630Z,10.53
2017-03-21T13:56:10.540Z,10.82
2017-03-21T13:57:20.077Z,10.94
2017-03-21T13:58:28.972Z,10.91
2017-03-21T13:59:38.204Z,10.99
2017-03-21T14:00:47.429Z,11.02
2017-03-21T14:01:56.662Z,11.14
2017-03-21T14:03:05.882Z,11.1
2017-03-21T14:04:15.127Z,11.22
2017-03-21T14:05:24.757Z,11.42
2017-03-21T14:06:33.760Z,11.51
2017-03-21T14:07:42.664Z,11.6
2017-03-21T14:08:52.546Z,11.7
2017-03-21T14:10:01.450Z,11.54
2017-03-21T14:11:10.355Z,11.47
2017-03-21T14:12:19.582Z,11.57
2017-03-21T14:13:28.815Z,11.75
2017-03-21T14:14:38.048Z,11.83
2017-03-21T14:15:47.272Z,11.91
2017-03-21T14:16:56.652Z,11.76
2017-03-21T14:18:05.549Z,11.79
2017-03-21T14:19:14.774Z,11.95
2017-03-21T14:20:23.996Z,12.1
2017-03-21T14:21:32.900Z,12.19
2017-03-21T14:22:42.381Z,12.32
2017-03-21T14:23:51.288Z,12.46
2017-03-21T14:25:00.191Z,12.56
2017-03-21T14:26:09.089Z,12.68
2017-03-21T14:27:18.318Z,12.56
2017-03-21T14:28:27.698Z,12.75
2017-03-21T14:29:37.256Z,12.75
2017-03-21T14:30:46.158Z,12.67
2017-03-21T14:31:55.064Z,12.56
2017-03-21T14:33:03.967Z,12.45
2017-03-21T14:34:13.120Z,12.32
2017-03-21T14:35:22.017Z,12.05
2017-03-21T14:36:31.245Z,12.02
2017-03-21T14:37:40.145Z,11.88
2017-03-21T14:38:49.697Z,12.05
2017-03-21T14:39:58.977Z,12.17
2017-03-21T14:41:08.205Z,12.02
2017-03-21T14:42:17.761Z,12.27
2017-03-21T14:43:26.991Z,12.12
2017-03-21T14:44:35.911Z,11.98
2017-03-21T14:45:45.191Z,12.19
2017-03-21T14:46:54.417Z,12.31
2017-03-21T14:48:03.643Z,12.39
2017-03-21T14:49:13.207Z,12.13
2017-03-21T14:50:22.784Z,12.19
2017-03-21T14:51:31.937Z,11.95
2017-03-21T14:52:41.170Z,11.95
2017-03-21T14:53:51.056Z,11.95
2017-03-21T14:55:00.938Z,12.07
2017-03-21T14:56:10.489Z,12.1
2017-03-21T14:57:19.542Z,12.04
2017-03-21T14:58:28.770Z,12.17
2017-03-21T14:59:37.677Z,12.17
2017-03-21T15:00:46.905Z,12.09
2017-03-21T15:01:55.810Z,11.96
2017-03-21T15:03:05.096Z,11.91
2017-03-21T15:04:14.689Z,11.7
2017-03-21T15:05:24.253Z,11.72
2017-03-21T15:06:33.168Z,11.64
2017-03-21T15:07:42.394Z,11.69
2017-03-21T15:08:52.002Z,11.67
2017-03-21T15:10:00.907Z,11.64
2017-03-21T15:11:09.809Z,11.55
2017-03-21T15:12:18.742Z,11.43
2017-03-21T15:13:27.969Z,11.29
2017-03-21T15:14:37.554Z,11.21
2017-03-21T15:15:46.783Z,11.24
2017-03-21T15:16:56.007Z,11.19